Mastic, NY

10:32 AM EDT on April 27, 2015 (GMT -0400)
Brookhaven | | Change Station
CLOSE
Current Station
Airport
Location: Shirley,
Elevation: 82 ft
Nearby Weather Stations

Elev 82 ft 40.82 °N, 72.87 °W | Updated 36 minutes ago

Overcast
Overcast
52 °F
Feels Like 52 °F
N
13
Wind Variable Wind from NW

Today
High -- | Low -- °F
--% Chance of Precip.
Yesterday
High -- | Low -- °F
Precip. -- in
5:55 AM 7:43 PM
Waxing Gibbous, 65% visible
Pressure 29.66 in
Visibility 10.0 miles
Clouds Overcast 8000 ft
Dew Point 34 °F
Humidity 50%
Rainfall 0.00 in
Snow Depth Not available.
UV 2 out of 12
Pollen 10.10 out of 12
Air Quality Not available.
Flu Activity Widespread
METAR KHWV 271356Z AUTO 32011KT 10SM OVC080 11/01 A2966 RMK AO2 SLP044 T01110011 TSNO

More Conditions Fewer Conditions

Pressure 29.66 in
Visibility 10.0 miles
Clouds Overcast 8000 ft
Dew Point 34 °F
Humidity 50%
Rainfall 0.00 in
Snow Depth Not available.
UV 2 out of 12
Pollen 10.10 out of 12
Air Quality Not available.
Flu Activity Widespread
METAR KHWV 271356Z AUTO 32011KT 10SM OVC080 11/01 A2966 RMK AO2 SLP044 T01110011 TSNO

More Conditions Fewer Conditions

10-Day Weather Forecast

Almanac

Astronomy

Apr. 27, 2015 Rise Set
Actual Time
Civil Twilight
Nautical Twilight
Astronomical Twilight
Moon
Length of Visible Light
Length of Day
Tomorrow will be .
, % of the Moon is Illuminated

Today's Extremes

State Highs State Lows

Community

WunderPhotos

Upload Photos

1,817,320 photos uploaded!

WunderBlogs® & News

Nearby

Air Quality

  Air Quality AQ Index Pollutant
Not available.

Snow Depth

Station Depth Elevation

Earthquake Activity

City Distance Mag. Time & Date
Minimum magnitude displayed is 2.5.

Coastal Water Temperatures

Place Temperature

Stations

Nearby Weather Stations

Station Location Temp. Windchill Dew Point Humidity Wind Precip. Elev Updated Type